SCELSAME

Guest
Details From SCEL - Arturo Merino Benitez Intl
To SAME - El Plumerillo
Flight Number -
Tags Generated
Created
Modified
Stats Distance 106 nm / 196 km
Max Altitude 0 ft / 0 m
Waypoints 2
Social Downloads 5
Likes 0
Share VATSIM

Download

Looking for another format? Having issues loading an existing format? Contact us
Advertisement - Login to hide

Notes

Generated

Route

SCEL SAME

ID Type Via Altitude Latitude Longitude Leg Dist Tot Dist Heading (true) Name
O SCEL APT - 0 ft / 0 m -33.37608˚ -70.78671˚ - 0 nm - -
O SAME APT - 0 ft / 0 m -32.81817˚ -68.79271˚ 105 nm 105 nm 72° / 71° -

Altitude Profile

Advertisement - Login to hide

SCEL

Details ICAO SCEL (SCL)
Name Arturo Merino Benitez Intl
Region Chile
Timezone America/Santiago (UTC-3.0)
Stats Elevation 1,550 ft / 472 m (AMSL)
Location -33.389775° -70.794366°
Runways 2
Magnetic Variation 1.803° E

METAR

SCEL 122200Z 22013KT CAVOK 22/11 Q1016 NOSIG

Decode

TAF

TAF SCEL 121644Z 1218/1318 20008KT 8000 FEW025 SCT040 TX22/1219Z TN11/1310Z BECMG 1300/1302 16006KT FEW020 SCT030 TEMPO 1308/1312 3000 BR FEW008 SCT015 BECMG 1315/1317 20008KT 8000 NSC

Decode

Departure Runways

ID Width Length Bearing (true) Bearing (mag) Surface Threshold Offset Overrun Length
17L 180 ft / 55 m 10,523 ft / 3,207 m 177.43° 175.63° Asphalt 0 ft / 0 m 0 ft / 0 m
17R 148 ft / 45 m 12,504 ft / 3,811 m 177.44° 175.64° Asphalt 0 ft / 0 m 0 ft / 0 m
35L 148 ft / 45 m 12,504 ft / 3,811 m 357.44° 355.64° Asphalt 0 ft / 0 m 0 ft / 0 m
35R 180 ft / 55 m 10,523 ft / 3,207 m 357.43° 355.63° Asphalt 1,800 ft / 549 m 0 ft / 0 m

SAME

Details ICAO SAME (MDZ)
Name El Plumerillo
Region Argentina
Timezone America/Argentina/Mendoza (UTC-3.0)
Stats Elevation 2,310 ft / 704 m (AMSL)
Location -32.831753° -68.792941°
Runways 1
Magnetic Variation 0.379° W

METAR

SAME 122200Z 20007KT 9999 FEW045TCU SCT050 33/10 Q1004

Decode

TAF

TAF SAME 121700Z 1218/1318 14010KT 9999 VCTS FEW040TCU FEW050CB TX33/1220Z TN20/1310Z BECMG 1221/1223 14015KT 8000 TSRA SCT040TCU FEW050CB

Decode

Destination Runways

ID Width Length Bearing (true) Bearing (mag) Surface Threshold Offset Overrun Length
18 177 ft / 54 m 9,915 ft / 3,022 m 180.83° 181.21° Concrete 381 ft / 116 m 0 ft / 0 m
36 177 ft / 54 m 9,915 ft / 3,022 m 0.83° 1.21° Concrete 361 ft / 110 m 0 ft / 0 m

Approach Navaids

Runway Type Ident Frequency Range Bearing (true) Bearing (mag) Slope Elevation
36 Localiser DO 109.90 MHz 18 nm / 33 km 0.90° 1.28° - 2,310 ft / 704 m (AMSL)
36 Glidescope DO 109.90 MHz 10 nm / 19 km 0.83° 1.21° 3.00° 2,311 ft / 704 m (AMSL)
36 DME DO 109.90 MHz 18 nm / 33 km - - - 2,311 ft / 704 m (AMSL)

Popular Alternatives